Spirit of St Louis Airport
KSUS : now visible

Airfield :











YOU CAN JOIN US ON...

 
LOGIN :

Register | Disclaimer

   EN    FR    IT 

 









Legend :    VFR   Marginal VFR   IFR   Intensive IFR   Very Intensive IFR
Visi :
Ceiling :
>= 8 km
>= 3000ft
5 to 8 km
1000 to 3000 ft
1500m to 5 km
500 to 1000 ft
800 to 1500m
200 to 500 ft
< 800m
< 200 ft
Symbols :   Thunderstorms  Fog  Heavy snow  Heavy precipitations  Wind > 20 kt






- Airport Elevation : 463 ft


KSUS - Spirit of St Louis

CURRENT METAR :
  • 041354Z 00000KT 10SM CLR M04/M07 A3036 RMK AO2 SLP291 T10391072

EXPIRED METARs :
  • 041254Z 00000KT 10SM CLR M04/M07 A3037 RMK AO2 SLP294 T10391067
  • 041154Z 00000KT 10SM CLR M03/M07 A3037 RMK AO2 SLP296 T10281067 11022 21056 55007

TAF KSUS
Valid from the 04 at 12:00 until the 05 at 12:00 UTC


041120Z 0412/0512 19005KT P6SM BKN250
FM050800 17005KT P6SM OVC100
KZKC FIR / North America



MET'MAP, your aeronautical weather chart ! - Copyright ORBIFLY December 2007 - Disclaimer

ORBIFLY MET'MAP TEAM :

Programming & Development : Alexandra Zaïnal
Original concept : Baudouin d'Aumeries
Technical & hardware support : Manuel Goepfert
Assistance : Marc-Olivier Méhu




SOURCES & CREDITS :

   NOAA       Earth
Advisory